createdAt,value
2018-03-28T00:00:23.477Z,10.1
2018-03-28T00:01:23.205Z,10.07
2018-03-28T00:02:23.272Z,10.1
2018-03-28T00:03:23.244Z,10.1
2018-03-28T00:04:23.330Z,10.13
2018-03-28T00:05:23.554Z,10.05
2018-03-28T00:06:23.280Z,10.04
2018-03-28T00:07:23.626Z,10.09
2018-03-28T00:08:23.592Z,10.09
2018-03-28T00:09:23.610Z,10.05
2018-03-28T00:10:23.335Z,9.94
2018-03-28T00:11:23.352Z,9.95
2018-03-28T00:12:23.132Z,9.97
2018-03-28T00:13:23.660Z,9.97
2018-03-28T00:14:23.404Z,9.94
2018-03-28T00:15:23.411Z,10.04
2018-03-28T00:16:23.425Z,9.91
2018-03-28T00:17:23.489Z,9.94
2018-03-28T00:18:23.454Z,9.97
2018-03-28T00:19:23.747Z,10.02
2018-03-28T00:20:23.778Z,9.94
2018-03-28T00:21:23.497Z,9.98
2018-03-28T00:22:23.841Z,9.87
2018-03-28T00:23:23.523Z,9.98
2018-03-28T00:24:23.823Z,9.95
2018-03-28T00:25:23.555Z,9.92
2018-03-28T00:26:23.851Z,9.94
2018-03-28T00:27:23.914Z,9.95
2018-03-28T00:28:23.596Z,9.97
2018-03-28T00:29:23.618Z,9.87
2018-03-28T00:30:23.910Z,9.92
2018-03-28T00:31:23.651Z,9.91
2018-03-28T00:32:23.939Z,9.87
2018-03-28T00:33:23.950Z,9.86
2018-03-28T00:34:23.972Z,9.89
2018-03-28T00:35:23.980Z,9.79
2018-03-28T00:36:23.992Z,9.95
2018-03-28T00:37:23.725Z,9.82
2018-03-28T00:38:24.025Z,9.87
2018-03-28T00:39:23.757Z,9.82
2018-03-28T00:40:24.048Z,9.82
2018-03-28T00:41:23.786Z,9.84
2018-03-28T00:42:24.177Z,9.79
2018-03-28T00:43:23.577Z,9.86
2018-03-28T00:44:24.107Z,9.74
2018-03-28T00:45:23.838Z,9.82
2018-03-28T00:46:23.570Z,9.82
2018-03-28T00:47:23.866Z,9.83
2018-03-28T00:48:24.214Z,9.84
2018-03-28T00:49:23.895Z,9.83
2018-03-28T00:50:24.395Z,9.84
2018-03-28T00:51:24.215Z,9.79
2018-03-28T00:52:24.223Z,9.79
2018-03-28T00:53:24.283Z,9.73
2018-03-28T00:54:23.967Z,9.73
2018-03-28T00:55:23.981Z,9.77
2018-03-28T00:56:24.052Z,9.79
2018-03-28T00:57:24.300Z,9.83
2018-03-28T00:58:24.357Z,9.72
2018-03-28T00:59:24.037Z,9.83
2018-03-28T01:00:24.053Z,9.79
2018-03-28T01:01:23.785Z,9.66
2018-03-28T01:02:24.101Z,9.64
2018-03-28T01:03:24.441Z,9.65
2018-03-28T01:04:24.390Z,9.66
2018-03-28T01:05:24.409Z,9.66
2018-03-28T01:06:24.427Z,9.76
2018-03-28T01:07:23.872Z,9.79
2018-03-28T01:08:24.499Z,9.8
2018-03-28T01:09:24.181Z,9.83
2018-03-28T01:10:24.476Z,9.66
2018-03-28T01:11:24.489Z,9.74
2018-03-28T01:12:24.508Z,9.72
2018-03-28T01:13:24.294Z,9.68
2018-03-28T01:14:24.532Z,9.69
2018-03-28T01:15:24.550Z,9.66
2018-03-28T01:16:24.560Z,9.72
2018-03-28T01:17:24.639Z,9.69
2018-03-28T01:18:24.593Z,9.66
2018-03-28T01:19:24.325Z,9.62
2018-03-28T01:20:24.620Z,9.72
2018-03-28T01:21:24.680Z,9.64
2018-03-28T01:22:24.645Z,9.68
2018-03-28T01:23:24.663Z,9.73
2018-03-28T01:24:24.394Z,9.72
2018-03-28T01:25:24.414Z,9.65
2018-03-28T01:26:24.447Z,9.72
2018-03-28T01:27:24.433Z,9.64
2018-03-28T01:28:24.453Z,9.62
2018-03-28T01:29:24.470Z,9.58
2018-03-28T01:30:24.479Z,9.64
2018-03-28T01:31:24.499Z,9.55
2018-03-28T01:32:24.799Z,9.61
2018-03-28T01:33:24.517Z,9.55
2018-03-28T01:34:24.815Z,9.62
2018-03-28T01:35:24.827Z,9.61
2018-03-28T01:36:24.275Z,9.64
2018-03-28T01:37:24.583Z,9.56
2018-03-28T01:38:24.590Z,9.62
2018-03-28T01:39:24.895Z,9.59
2018-03-28T01:40:24.901Z,9.58
2018-03-28T01:41:24.921Z,9.59
2018-03-28T01:42:24.930Z,9.61
2018-03-28T01:43:24.661Z,9.55
2018-03-28T01:44:24.677Z,9.55
2018-03-28T01:45:24.694Z,9.55
2018-03-28T01:46:24.430Z,9.59
2018-03-28T01:47:24.996Z,9.59
2018-03-28T01:48:25.012Z,9.59
2018-03-28T01:49:24.744Z,9.55
2018-03-28T01:50:25.116Z,9.48
2018-03-28T01:51:25.065Z,9.56
2018-03-28T01:52:24.782Z,9.56
2018-03-28T01:53:24.516Z,9.51
2018-03-28T01:54:25.211Z,9.59
2018-03-28T01:55:24.826Z,9.55
2018-03-28T01:56:25.122Z,9.47
2018-03-28T01:57:24.862Z,9.51
2018-03-28T01:58:24.879Z,9.59
2018-03-28T01:59:25.227Z,9.5
2018-03-28T02:00:24.896Z,9.48
2018-03-28T02:01:25.196Z,9.56
2018-03-28T02:02:25.210Z,9.55
2018-03-28T02:03:25.224Z,9.46
2018-03-28T02:04:25.000Z,9.5
2018-03-28T02:05:24.964Z,9.47
2018-03-28T02:06:25.275Z,9.41
2018-03-28T02:07:25.279Z,9.54
2018-03-28T02:08:25.007Z,9.5
2018-03-28T02:09:24.790Z,9.44
2018-03-28T02:10:25.319Z,9.44
2018-03-28T02:11:24.773Z,9.47
2018-03-28T02:12:25.348Z,9.43
2018-03-28T02:13:25.358Z,9.46
2018-03-28T02:14:25.139Z,9.44
2018-03-28T02:15:25.184Z,9.41
2018-03-28T02:16:24.835Z,9.4
2018-03-28T02:17:25.414Z,9.47
2018-03-28T02:18:25.228Z,9.47
2018-03-28T02:19:25.443Z,9.47
2018-03-28T02:20:25.175Z,9.43
2018-03-28T02:21:25.495Z,9.41
2018-03-28T02:22:25.486Z,9.43
2018-03-28T02:23:25.499Z,9.43
2018-03-28T02:24:25.568Z,9.44
2018-03-28T02:25:25.297Z,9.4
2018-03-28T02:26:25.283Z,9.44
2018-03-28T02:27:25.268Z,9.43
2018-03-28T02:28:25.283Z,9.44
2018-03-28T02:29:25.348Z,9.46
2018-03-28T02:30:25.318Z,9.43
2018-03-28T02:31:25.345Z,9.41
2018-03-28T02:32:25.636Z,9.43
2018-03-28T02:33:25.361Z,9.43
2018-03-28T02:34:25.424Z,9.43
2018-03-28T02:35:25.384Z,9.44
2018-03-28T02:36:25.682Z,9.4
2018-03-28T02:37:25.701Z,9.47
2018-03-28T02:38:25.435Z,9.46
2018-03-28T02:39:25.777Z,9.46
2018-03-28T02:40:25.734Z,9.47
2018-03-28T02:41:25.761Z,9.46
2018-03-28T02:42:25.480Z,9.48
2018-03-28T02:43:25.494Z,9.43
2018-03-28T02:44:25.879Z,9.4
2018-03-28T02:45:25.522Z,9.39
2018-03-28T02:46:26.004Z,9.32
2018-03-28T02:47:26.203Z,9.37
2018-03-28T02:48:26.379Z,9.43
2018-03-28T02:49:26.039Z,9.37
2018-03-28T02:50:26.612Z,9.4
2018-03-28T02:51:25.866Z,9.4
2018-03-28T02:52:26.232Z,9.31
2018-03-28T02:53:25.932Z,9.4
2018-03-28T02:54:26.014Z,9.36
2018-03-28T02:55:26.295Z,9.34
2018-03-28T02:56:26.286Z,9.39
2018-03-28T02:57:26.282Z,9.34
2018-03-28T02:58:26.324Z,9.34
2018-03-28T02:59:26.379Z,9.34
2018-03-28T03:00:26.333Z,9.32
2018-03-28T03:01:26.445Z,9.32
2018-03-28T03:02:26.109Z,9.22
2018-03-28T03:03:25.799Z,9.36
2018-03-28T03:04:26.042Z,9.22
2018-03-28T03:05:26.169Z,9.34
2018-03-28T03:06:26.415Z,9.36
2018-03-28T03:07:26.412Z,9.22
2018-03-28T03:08:26.530Z,9.4
2018-03-28T03:09:26.168Z,9.28
2018-03-28T03:10:26.698Z,9.21
2018-03-28T03:11:26.541Z,9.32
2018-03-28T03:12:26.170Z,9.31
2018-03-28T03:13:26.264Z,9.32
2018-03-28T03:14:26.223Z,9.26
2018-03-28T03:15:25.990Z,9.34
2018-03-28T03:16:25.950Z,9.23
2018-03-28T03:17:26.249Z,9.31
2018-03-28T03:18:25.971Z,9.26
2018-03-28T03:19:25.987Z,9.29
2018-03-28T03:20:25.764Z,9.31
2018-03-28T03:21:26.013Z,9.31
2018-03-28T03:22:26.026Z,9.29
2018-03-28T03:23:26.328Z,9.29
2018-03-28T03:24:25.773Z,9.21
2018-03-28T03:25:26.401Z,9.31
2018-03-28T03:26:26.366Z,9.37
2018-03-28T03:27:26.387Z,9.26
2018-03-28T03:28:26.111Z,9.31
2018-03-28T03:29:26.170Z,9.31
2018-03-28T03:30:26.485Z,9.34
2018-03-28T03:31:26.450Z,9.31
2018-03-28T03:32:26.166Z,9.34
2018-03-28T03:33:26.476Z,9.28
2018-03-28T03:34:26.482Z,9.28
2018-03-28T03:35:26.576Z,9.29
2018-03-28T03:36:26.505Z,9.29
2018-03-28T03:37:25.948Z,9.29
2018-03-28T03:38:26.542Z,9.19
2018-03-28T03:39:26.265Z,9.29
2018-03-28T03:40:26.357Z,9.26
2018-03-28T03:41:26.612Z,9.31
2018-03-28T03:42:26.588Z,9.18
2018-03-28T03:43:26.349Z,9.31
2018-03-28T03:44:26.352Z,9.28
2018-03-28T03:45:26.402Z,9.31
2018-03-28T03:46:26.356Z,9.31
2018-03-28T03:47:26.374Z,9.31
2018-03-28T03:48:26.131Z,9.28
2018-03-28T03:49:26.418Z,9.28
2018-03-28T03:50:26.793Z,9.28
2018-03-28T03:51:26.420Z,9.32
2018-03-28T03:52:26.737Z,9.36
2018-03-28T03:53:26.494Z,9.21
2018-03-28T03:54:26.594Z,9.32
2018-03-28T03:55:26.281Z,9.25
2018-03-28T03:56:26.796Z,9.31
2018-03-28T03:57:26.803Z,9.26
2018-03-28T03:58:26.518Z,9.25
2018-03-28T03:59:26.816Z,9.28
2018-03-28T04:00:26.827Z,9.31
2018-03-28T04:01:26.852Z,9.31
2018-03-28T04:02:26.308Z,9.31
2018-03-28T04:03:26.586Z,9.31
2018-03-28T04:04:26.886Z,9.31
2018-03-28T04:05:26.682Z,9.26
2018-03-28T04:06:26.344Z,9.31
2018-03-28T04:07:26.661Z,9.29
2018-03-28T04:08:26.949Z,9.29
2018-03-28T04:09:26.667Z,9.31
2018-03-28T04:10:26.969Z,9.34
2018-03-28T04:11:26.707Z,9.29
2018-03-28T04:12:26.792Z,9.29
2018-03-28T04:13:26.722Z,9.26
2018-03-28T04:14:26.470Z,9.28
2018-03-28T04:15:26.753Z,9.26
2018-03-28T04:16:26.814Z,9.26
2018-03-28T04:17:26.780Z,9.31
2018-03-28T04:18:26.510Z,9.23
2018-03-28T04:19:27.091Z,9.29
2018-03-28T04:20:26.823Z,9.28
2018-03-28T04:21:27.174Z,9.28
2018-03-28T04:22:27.129Z,9.28
2018-03-28T04:23:26.862Z,9.25
2018-03-28T04:24:26.872Z,9.28
2018-03-28T04:25:27.174Z,9.25
2018-03-28T04:26:27.185Z,9.29
2018-03-28T04:27:27.197Z,9.31
2018-03-28T04:28:26.933Z,9.28
2018-03-28T04:29:26.940Z,9.29
2018-03-28T04:30:26.669Z,9.28
2018-03-28T04:31:27.018Z,9.29
2018-03-28T04:32:26.980Z,9.28
2018-03-28T04:33:26.994Z,9.31
2018-03-28T04:34:27.009Z,9.28
2018-03-28T04:35:27.026Z,9.26
2018-03-28T04:36:27.365Z,9.26
2018-03-28T04:37:27.335Z,9.28
2018-03-28T04:38:26.779Z,9.26
2018-03-28T04:39:27.381Z,9.34
2018-03-28T04:40:27.088Z,9.25
2018-03-28T04:41:27.158Z,9.31
2018-03-28T04:42:27.118Z,9.28
2018-03-28T04:43:27.131Z,9.28
2018-03-28T04:44:27.156Z,9.25
2018-03-28T04:45:27.165Z,9.28
2018-03-28T04:46:27.507Z,9.28
2018-03-28T04:47:27.187Z,9.29
2018-03-28T04:48:26.919Z,9.28
2018-03-28T04:49:27.510Z,9.29
2018-03-28T04:50:27.221Z,9.28
2018-03-28T04:51:27.290Z,9.29
2018-03-28T04:52:27.256Z,9.26
2018-03-28T04:53:27.280Z,9.19
2018-03-28T04:54:27.614Z,9.23
2018-03-28T04:55:27.577Z,9.23
2018-03-28T04:56:27.074Z,9.25
2018-03-28T04:57:27.602Z,9.29
2018-03-28T04:58:27.623Z,9.29
2018-03-28T04:59:27.661Z,9.28
2018-03-28T05:00:27.366Z,9.22
2018-03-28T05:01:27.140Z,9.25
2018-03-28T05:02:27.386Z,9.23
2018-03-28T05:03:27.401Z,9.28
2018-03-28T05:04:27.435Z,9.25
2018-03-28T05:05:27.437Z,9.28
2018-03-28T05:06:27.158Z,9.28
2018-03-28T05:07:27.744Z,9.28
2018-03-28T05:08:27.762Z,9.29
2018-03-28T05:09:27.489Z,9.26
2018-03-28T05:10:27.788Z,9.25
2018-03-28T05:11:27.227Z,9.29
2018-03-28T05:12:27.528Z,9.32
2018-03-28T05:13:27.830Z,9.32
2018-03-28T05:14:27.839Z,9.29
2018-03-28T05:15:27.850Z,9.23
2018-03-28T05:16:27.578Z,9.25
2018-03-28T05:17:27.887Z,9.26
2018-03-28T05:18:27.320Z,9.26
2018-03-28T05:19:27.616Z,9.26
2018-03-28T05:20:27.632Z,9.28
2018-03-28T05:21:27.981Z,9.28
2018-03-28T05:22:27.378Z,9.29
2018-03-28T05:23:27.670Z,9.29
2018-03-28T05:24:27.402Z,9.26
2018-03-28T05:25:27.706Z,9.31
2018-03-28T05:26:28.000Z,9.26
2018-03-28T05:27:28.014Z,9.31
2018-03-28T05:28:27.741Z,9.21
2018-03-28T05:29:27.755Z,9.29
2018-03-28T05:30:28.055Z,9.26
2018-03-28T05:31:28.118Z,9.21
2018-03-28T05:32:27.793Z,9.28
2018-03-28T05:33:27.808Z,9.32
2018-03-28T05:34:27.537Z,9.31
2018-03-28T05:35:27.559Z,9.32
2018-03-28T05:36:28.131Z,9.31
2018-03-28T05:37:28.150Z,9.37
2018-03-28T05:38:27.883Z,9.36
2018-03-28T05:39:27.891Z,9.32
2018-03-28T05:40:28.184Z,9.32
2018-03-28T05:41:28.253Z,9.36
2018-03-28T05:42:27.927Z,9.36
2018-03-28T05:43:28.232Z,9.34
2018-03-28T05:44:27.955Z,9.39
2018-03-28T05:45:27.692Z,9.34
2018-03-28T05:46:27.984Z,9.4
2018-03-28T05:47:28.282Z,9.37
2018-03-28T05:48:28.010Z,9.4
2018-03-28T05:49:28.045Z,9.36
2018-03-28T05:50:28.391Z,9.36
2018-03-28T05:51:28.052Z,9.36
2018-03-28T05:52:28.081Z,9.37
2018-03-28T05:53:28.078Z,9.4
2018-03-28T05:54:28.101Z,9.47
2018-03-28T05:55:28.106Z,9.43
2018-03-28T05:56:28.406Z,9.4
2018-03-28T05:57:28.419Z,9.41
2018-03-28T05:58:28.433Z,9.41
2018-03-28T05:59:28.163Z,9.47
2018-03-28T06:00:28.175Z,9.41
2018-03-28T06:01:28.184Z,9.46
2018-03-28T06:02:28.201Z,9.43
2018-03-28T06:03:28.217Z,9.46
2018-03-28T06:04:28.519Z,9.44
2018-03-28T06:05:28.524Z,9.43
2018-03-28T06:06:28.253Z,9.48
2018-03-28T06:07:28.429Z,9.41
2018-03-28T06:08:28.281Z,9.43
2018-03-28T06:09:28.298Z,9.44
2018-03-28T06:10:28.310Z,9.43
2018-03-28T06:11:28.328Z,9.47
2018-03-28T06:12:28.338Z,9.47
2018-03-28T06:13:28.394Z,9.47
2018-03-28T06:14:28.643Z,9.43
2018-03-28T06:15:28.377Z,9.46
2018-03-28T06:16:28.393Z,9.5
2018-03-28T06:17:28.407Z,9.5
2018-03-28T06:18:28.868Z,9.59
2018-03-28T06:19:28.149Z,9.47
2018-03-28T06:20:28.727Z,9.56
2018-03-28T06:21:28.741Z,9.59
2018-03-28T06:22:28.761Z,9.58
2018-03-28T06:23:28.483Z,9.55
2018-03-28T06:24:28.496Z,9.58
2018-03-28T06:25:28.514Z,9.56
2018-03-28T06:26:28.532Z,9.56
2018-03-28T06:27:28.261Z,9.55
2018-03-28T06:28:28.833Z,9.55
2018-03-28T06:29:28.850Z,9.61
2018-03-28T06:30:28.579Z,9.59
2018-03-28T06:31:28.599Z,9.64
2018-03-28T06:32:28.890Z,9.68
2018-03-28T06:33:28.622Z,9.68
2018-03-28T06:34:28.635Z,9.73
2018-03-28T06:35:28.930Z,9.66
2018-03-28T06:36:28.945Z,9.64
2018-03-28T06:37:28.959Z,9.65
2018-03-28T06:38:28.981Z,9.72
2018-03-28T06:39:28.703Z,9.68
2018-03-28T06:40:28.717Z,9.69
2018-03-28T06:41:29.066Z,9.65
2018-03-28T06:42:29.028Z,9.69
2018-03-28T06:43:29.048Z,9.69
2018-03-28T06:44:28.774Z,9.62
2018-03-28T06:45:28.788Z,9.69
2018-03-28T06:46:28.520Z,9.66
2018-03-28T06:47:28.814Z,9.72
2018-03-28T06:48:28.545Z,9.72
2018-03-28T06:49:29.136Z,9.76
2018-03-28T06:50:29.141Z,9.69
2018-03-28T06:51:29.152Z,9.8
2018-03-28T06:52:29.173Z,9.79
2018-03-28T06:53:28.896Z,9.73
2018-03-28T06:54:28.910Z,9.77
2018-03-28T06:55:29.219Z,9.76
2018-03-28T06:56:29.231Z,9.79
2018-03-28T06:57:28.954Z,9.65
2018-03-28T06:58:29.248Z,9.79
2018-03-28T06:59:28.984Z,9.79
2018-03-28T07:00:29.278Z,9.69
2018-03-28T07:01:29.009Z,9.66
2018-03-28T07:02:28.788Z,9.65
2018-03-28T07:03:29.320Z,9.83
2018-03-28T07:04:29.053Z,9.72
2018-03-28T07:05:29.544Z,9.73
2018-03-28T07:06:29.362Z,9.77
2018-03-28T07:07:29.503Z,9.79
2018-03-28T07:08:29.106Z,9.8
2018-03-28T07:09:29.122Z,9.82
2018-03-28T07:10:29.132Z,9.83
2018-03-28T07:11:29.144Z,9.87
2018-03-28T07:12:29.162Z,9.84
2018-03-28T07:13:29.173Z,9.86
2018-03-28T07:14:28.903Z,9.91
2018-03-28T07:15:29.482Z,9.92
2018-03-28T07:16:28.932Z,9.91
2018-03-28T07:17:28.946Z,9.98
2018-03-28T07:18:29.246Z,9.97
2018-03-28T07:19:28.976Z,9.98
2018-03-28T07:20:28.988Z,9.94
2018-03-28T07:21:29.290Z,9.97
2018-03-28T07:22:29.299Z,9.94
2018-03-28T07:23:29.595Z,9.94
2018-03-28T07:24:29.044Z,9.98
2018-03-28T07:25:29.343Z,10.01
2018-03-28T07:26:29.636Z,10.01
2018-03-28T07:27:29.364Z,10.12
2018-03-28T07:28:29.670Z,10.1
2018-03-28T07:29:29.683Z,10.04
2018-03-28T07:30:29.413Z,10.13
2018-03-28T07:31:29.140Z,10.1
2018-03-28T07:32:29.438Z,10.25
2018-03-28T07:33:29.454Z,10.22
2018-03-28T07:34:29.467Z,10.23
2018-03-28T07:35:29.484Z,10.23
2018-03-28T07:36:29.497Z,10.25
2018-03-28T07:37:29.793Z,10.28
2018-03-28T07:38:29.811Z,10.33
2018-03-28T07:39:29.824Z,10.25
2018-03-28T07:40:29.896Z,10.34
2018-03-28T07:41:29.566Z,10.4
2018-03-28T07:42:29.299Z,10.42
2018-03-28T07:43:29.873Z,10.42
2018-03-28T07:44:29.898Z,10.44
2018-03-28T07:45:29.338Z,10.44
2018-03-28T07:46:29.353Z,10.49
2018-03-28T07:47:29.937Z,10.49
2018-03-28T07:48:29.664Z,10.59
2018-03-28T07:49:29.683Z,10.54
2018-03-28T07:50:29.698Z,10.59
2018-03-28T07:51:29.712Z,10.53
2018-03-28T07:52:29.439Z,10.63
2018-03-28T07:53:30.019Z,10.64
2018-03-28T07:54:30.036Z,10.67
2018-03-28T07:55:29.766Z,10.63
2018-03-28T07:56:30.064Z,10.64
2018-03-28T07:57:29.794Z,10.61
2018-03-28T07:58:30.175Z,10.67
2018-03-28T07:59:30.140Z,10.63
2018-03-28T08:00:30.040Z,10.64
2018-03-28T08:01:30.132Z,10.68
2018-03-28T08:02:30.152Z,10.78
2018-03-28T08:03:29.930Z,10.74
2018-03-28T08:04:30.196Z,10.74
2018-03-28T08:05:30.191Z,10.81
2018-03-28T08:06:30.216Z,10.79
2018-03-28T08:07:29.944Z,10.69
2018-03-28T08:08:29.669Z,10.81
2018-03-28T08:09:30.280Z,10.76
2018-03-28T08:10:30.261Z,10.74
2018-03-28T08:11:30.005Z,10.79
2018-03-28T08:12:30.009Z,10.74
2018-03-28T08:13:30.074Z,10.71
2018-03-28T08:14:30.052Z,10.78
2018-03-28T08:15:30.340Z,10.79
2018-03-28T08:16:30.068Z,10.76
2018-03-28T08:17:30.087Z,10.78
2018-03-28T08:18:30.430Z,10.81
2018-03-28T08:19:30.414Z,10.79
2018-03-28T08:20:30.152Z,10.82
2018-03-28T08:21:30.427Z,10.75
2018-03-28T08:22:30.440Z,10.71
2018-03-28T08:23:30.505Z,10.82
2018-03-28T08:24:30.510Z,10.84
2018-03-28T08:25:30.486Z,10.75
2018-03-28T08:26:30.503Z,10.9
2018-03-28T08:27:30.521Z,10.82
2018-03-28T08:28:30.292Z,10.81
2018-03-28T08:29:30.540Z,10.82
2018-03-28T08:30:30.569Z,10.81
2018-03-28T08:31:30.574Z,10.93
2018-03-28T08:32:30.320Z,10.84
2018-03-28T08:33:30.366Z,10.79
2018-03-28T08:34:30.334Z,10.81
2018-03-28T08:35:30.348Z,10.84
2018-03-28T08:36:30.360Z,10.75
2018-03-28T08:37:30.383Z,10.79
2018-03-28T08:38:30.738Z,10.81
2018-03-28T08:39:30.411Z,10.86
2018-03-28T08:40:30.703Z,10.81
2018-03-28T08:41:30.715Z,10.82
2018-03-28T08:42:30.746Z,10.74
2018-03-28T08:43:30.567Z,10.84
2018-03-28T08:44:30.762Z,10.82
2018-03-28T08:45:30.782Z,10.81
2018-03-28T08:46:30.787Z,10.76
2018-03-28T08:47:30.522Z,10.86
2018-03-28T08:48:30.847Z,10.82
2018-03-28T08:49:30.269Z,10.76
2018-03-28T08:50:30.563Z,10.79
2018-03-28T08:51:30.579Z,10.89
2018-03-28T08:52:30.604Z,10.84
2018-03-28T08:53:30.954Z,10.79
2018-03-28T08:54:30.923Z,10.81
2018-03-28T08:55:30.642Z,10.84
2018-03-28T08:56:30.655Z,10.84
2018-03-28T08:57:30.680Z,10.9
2018-03-28T08:58:30.965Z,10.94
2018-03-28T08:59:30.985Z,10.9
2018-03-28T09:00:30.430Z,10.97
2018-03-28T09:01:31.014Z,10.89
2018-03-28T09:02:30.754Z,10.89
2018-03-28T09:03:31.094Z,10.96
2018-03-28T09:04:30.776Z,10.97
2018-03-28T09:05:30.788Z,10.99
2018-03-28T09:06:30.799Z,11
2018-03-28T09:07:30.817Z,11.07
2018-03-28T09:08:30.885Z,11.07
2018-03-28T09:09:31.132Z,11.05
2018-03-28T09:10:30.578Z,11.02
2018-03-28T09:11:31.178Z,11.14
2018-03-28T09:12:30.611Z,11.11
2018-03-28T09:13:30.955Z,11.11
2018-03-28T09:14:30.930Z,11.18
2018-03-28T09:15:30.936Z,11.18
2018-03-28T09:16:30.949Z,11.19
2018-03-28T09:17:30.965Z,11.19
2018-03-28T09:18:31.043Z,11.17
2018-03-28T09:19:31.280Z,11.18
2018-03-28T09:20:31.288Z,11.25
2018-03-28T09:21:31.025Z,11.23
2018-03-28T09:22:31.319Z,11.22
2018-03-28T09:23:31.455Z,11.29
2018-03-28T09:24:31.064Z,11.22
2018-03-28T09:25:31.088Z,11.25
2018-03-28T09:26:31.387Z,11.26
2018-03-28T09:27:30.831Z,11.33
2018-03-28T09:28:31.413Z,11.27
2018-03-28T09:29:31.423Z,11.26
2018-03-28T09:30:31.440Z,11.35
2018-03-28T09:31:31.456Z,11.29
2018-03-28T09:32:31.480Z,11.26
2018-03-28T09:33:31.257Z,11.26
2018-03-28T09:34:31.217Z,11.3
2018-03-28T09:35:31.234Z,11.29
2018-03-28T09:36:30.966Z,11.25
2018-03-28T09:37:31.260Z,11.19
2018-03-28T09:38:31.328Z,11.32
2018-03-28T09:39:31.007Z,11.26
2018-03-28T09:40:31.647Z,11.3
2018-03-28T09:41:31.604Z,11.29
2018-03-28T09:42:31.341Z,11.26
2018-03-28T09:43:31.401Z,11.25
2018-03-28T09:44:31.085Z,11.27
2018-03-28T09:45:31.662Z,11.35
2018-03-28T09:46:31.397Z,11.3
2018-03-28T09:47:31.246Z,11.26
2018-03-28T09:48:31.711Z,11.32
2018-03-28T09:49:31.443Z,11.25
2018-03-28T09:50:31.739Z,11.32
2018-03-28T09:51:31.763Z,11.29
2018-03-28T09:52:31.487Z,11.27
2018-03-28T09:53:31.781Z,11.35
2018-03-28T09:54:31.515Z,11.32
2018-03-28T09:55:31.817Z,11.33
2018-03-28T09:56:31.554Z,11.25
2018-03-28T09:57:31.562Z,11.33
2018-03-28T09:58:31.579Z,11.25
2018-03-28T09:59:31.876Z,11.35
2018-03-28T10:00:31.918Z,11.35
2018-03-28T10:01:31.626Z,11.3
2018-03-28T10:02:31.638Z,11.4
2018-03-28T10:03:31.649Z,11.37
2018-03-28T10:04:31.667Z,11.37
2018-03-28T10:05:31.684Z,11.36
2018-03-28T10:06:31.989Z,11.35
2018-03-28T10:07:31.429Z,11.43
2018-03-28T10:08:32.008Z,11.43
2018-03-28T10:09:31.816Z,11.37
2018-03-28T10:10:31.764Z,11.36
2018-03-28T10:11:31.775Z,11.37
2018-03-28T10:12:31.512Z,11.37
2018-03-28T10:13:32.084Z,11.4
2018-03-28T10:14:32.105Z,11.43
2018-03-28T10:15:31.833Z,11.37
2018-03-28T10:16:32.132Z,11.43
2018-03-28T10:17:31.950Z,11.43
2018-03-28T10:18:32.168Z,11.41
2018-03-28T10:19:32.188Z,11.36
2018-03-28T10:20:31.909Z,11.35
2018-03-28T10:21:31.921Z,11.37
2018-03-28T10:22:31.657Z,11.41
2018-03-28T10:23:31.955Z,11.37
2018-03-28T10:24:31.969Z,11.4
2018-03-28T10:25:31.982Z,11.33
2018-03-28T10:26:32.284Z,11.35
2018-03-28T10:27:32.303Z,11.35
2018-03-28T10:28:32.032Z,11.41
2018-03-28T10:29:32.325Z,11.35
2018-03-28T10:30:32.344Z,11.37
2018-03-28T10:31:32.076Z,11.4
2018-03-28T10:32:32.090Z,11.36
2018-03-28T10:33:31.822Z,11.36
2018-03-28T10:34:32.168Z,11.4
2018-03-28T10:35:32.134Z,11.36
2018-03-28T10:36:32.150Z,11.4
2018-03-28T10:37:31.887Z,11.37
2018-03-28T10:38:32.472Z,11.37
2018-03-28T10:39:32.530Z,11.37
2018-03-28T10:40:31.929Z,11.43
2018-03-28T10:41:32.231Z,11.37
2018-03-28T10:42:31.970Z,11.4
2018-03-28T10:43:32.542Z,11.43
2018-03-28T10:44:32.607Z,11.4
2018-03-28T10:45:32.568Z,11.43
2018-03-28T10:46:32.300Z,11.48
2018-03-28T10:47:32.602Z,11.51
2018-03-28T10:48:32.699Z,11.48
2018-03-28T10:49:32.402Z,11.43
2018-03-28T10:50:32.363Z,11.52
2018-03-28T10:51:32.380Z,11.55
2018-03-28T10:52:32.398Z,11.52
2018-03-28T10:53:32.691Z,11.52
2018-03-28T10:54:32.753Z,11.62
2018-03-28T10:55:32.749Z,11.63
2018-03-28T10:56:32.450Z,11.63
2018-03-28T10:57:32.492Z,11.6
2018-03-28T10:58:32.482Z,11.72
2018-03-28T10:59:32.499Z,11.78
2018-03-28T11:00:32.799Z,11.7
2018-03-28T11:01:32.815Z,11.75
2018-03-28T11:02:32.826Z,11.72
2018-03-28T11:03:32.562Z,11.73
2018-03-28T11:04:33.077Z,11.62
2018-03-28T11:05:32.592Z,11.75
2018-03-28T11:06:32.898Z,11.63
2018-03-28T11:07:32.627Z,11.77
2018-03-28T11:08:32.648Z,11.78
2018-03-28T11:09:32.701Z,11.75
2018-03-28T11:10:32.946Z,11.78
2018-03-28T11:11:32.968Z,11.73
2018-03-28T11:12:32.696Z,11.78
2018-03-28T11:13:32.712Z,11.77
2018-03-28T11:14:33.056Z,11.72
2018-03-28T11:15:33.025Z,11.77
2018-03-28T11:16:33.041Z,11.77
2018-03-28T11:17:32.799Z,11.73
2018-03-28T11:18:32.797Z,11.84
2018-03-28T11:19:33.141Z,11.8
2018-03-28T11:20:33.192Z,11.77
2018-03-28T11:21:33.123Z,11.73
2018-03-28T11:22:33.132Z,11.78
2018-03-28T11:23:33.157Z,11.8
2018-03-28T11:24:32.929Z,11.77
2018-03-28T11:25:32.898Z,11.77
2018-03-28T11:26:33.193Z,11.8
2018-03-28T11:27:32.926Z,11.75
2018-03-28T11:28:32.948Z,11.77
2018-03-28T11:29:33.252Z,11.83
2018-03-28T11:30:32.972Z,11.73
2018-03-28T11:31:32.992Z,11.75
2018-03-28T11:32:32.736Z,11.72
2018-03-28T11:33:32.743Z,11.77
2018-03-28T11:34:33.086Z,11.72
2018-03-28T11:35:33.335Z,11.78
2018-03-28T11:36:33.067Z,11.72
2018-03-28T11:37:33.363Z,11.73
2018-03-28T11:38:33.379Z,11.77
2018-03-28T11:39:33.448Z,11.81
2018-03-28T11:40:33.410Z,11.8
2018-03-28T11:41:33.141Z,11.78
2018-03-28T11:42:33.444Z,11.73
2018-03-28T11:43:33.225Z,11.73
2018-03-28T11:44:33.523Z,11.73
2018-03-28T11:45:33.206Z,11.77
2018-03-28T11:46:33.504Z,11.77
2018-03-28T11:47:33.234Z,11.73
2018-03-28T11:48:33.248Z,11.77
2018-03-28T11:49:33.315Z,11.75
2018-03-28T11:50:33.562Z,11.75
2018-03-28T11:51:33.305Z,11.77
2018-03-28T11:52:33.593Z,11.72
2018-03-28T11:53:33.045Z,11.73
2018-03-28T11:54:33.671Z,11.77
2018-03-28T11:55:33.355Z,11.77
2018-03-28T11:56:33.657Z,11.78
2018-03-28T11:57:33.670Z,11.84
2018-03-28T11:58:33.692Z,11.75
2018-03-28T11:59:33.135Z,11.8
2018-03-28T12:00:33.436Z,11.8
2018-03-28T12:01:33.448Z,11.77
2018-03-28T12:02:33.750Z,11.77
2018-03-28T12:03:33.482Z,11.77
2018-03-28T12:04:33.499Z,11.72
2018-03-28T12:05:33.509Z,11.77
2018-03-28T12:06:33.524Z,11.73
2018-03-28T12:07:33.542Z,11.8
2018-03-28T12:08:33.881Z,11.84
2018-03-28T12:09:33.572Z,11.78
2018-03-28T12:10:33.588Z,11.7
2018-03-28T12:11:33.322Z,11.72
2018-03-28T12:12:33.900Z,11.72
2018-03-28T12:13:33.637Z,11.8
2018-03-28T12:14:33.650Z,11.88
2018-03-28T12:15:33.949Z,11.7
2018-03-28T12:16:33.974Z,11.87
2018-03-28T12:17:33.707Z,11.87
2018-03-28T12:18:34.074Z,11.9
2018-03-28T12:19:33.735Z,11.88
2018-03-28T12:20:33.792Z,11.94
2018-03-28T12:21:34.042Z,11.78
2018-03-28T12:22:34.058Z,11.87
2018-03-28T12:23:33.806Z,11.84
2018-03-28T12:24:34.087Z,11.87
2018-03-28T12:25:33.589Z,11.83
2018-03-28T12:26:33.556Z,11.88
2018-03-28T12:27:33.568Z,11.88
2018-03-28T12:28:33.867Z,11.88
2018-03-28T12:29:33.879Z,11.88
2018-03-28T12:30:34.017Z,11.95
2018-03-28T12:31:34.199Z,11.97
2018-03-28T12:32:34.215Z,11.9
2018-03-28T12:33:33.947Z,11.94
2018-03-28T12:34:34.244Z,11.9
2018-03-28T12:35:34.305Z,12.02
2018-03-28T12:36:34.271Z,12.02
2018-03-28T12:37:34.007Z,12.06
2018-03-28T12:38:34.029Z,12.04
2018-03-28T12:39:34.042Z,11.99
2018-03-28T12:40:33.767Z,12.04
2018-03-28T12:41:34.356Z,12.02
2018-03-28T12:42:33.803Z,12.04
2018-03-28T12:43:34.384Z,12
2018-03-28T12:44:34.113Z,12.17
2018-03-28T12:45:34.159Z,12
2018-03-28T12:46:34.434Z,12.02
2018-03-28T12:47:34.161Z,12
2018-03-28T12:48:33.895Z,12
2018-03-28T12:49:34.498Z,11.97
2018-03-28T12:50:34.518Z,12
2018-03-28T12:51:34.530Z,11.97
2018-03-28T12:52:33.953Z,11.99
2018-03-28T12:53:34.536Z,11.99
2018-03-28T12:54:34.295Z,12.07
2018-03-28T12:55:34.606Z,12.04
2018-03-28T12:56:34.353Z,12.04
2018-03-28T12:57:34.600Z,12.04
2018-03-28T12:58:34.613Z,12.02
2018-03-28T12:59:34.362Z,12.03
2018-03-28T13:00:34.413Z,12.03
2018-03-28T13:01:34.383Z,12.15
2018-03-28T13:02:34.481Z,12.06
2018-03-28T13:03:34.694Z,12.07
2018-03-28T13:04:34.427Z,12.06
2018-03-28T13:05:34.211Z,12.18
2018-03-28T13:06:34.454Z,12.1
2018-03-28T13:07:34.762Z,12.15
2018-03-28T13:08:34.770Z,12.17
2018-03-28T13:09:34.790Z,12.12